sensor_id;sensor_type;location;lat;lon;timestamp;P1;durP1;ratioP1;P2;durP2;ratioP2
24335;SDS011;33098;52.400;16.880;2023-01-31T00:02:14;7.30;;;2.10;;
24335;SDS011;33098;52.400;16.880;2023-01-31T00:04:40;10.80;;;2.20;;
24335;SDS011;33098;52.400;16.880;2023-01-31T00:07:10;9.80;;;2.10;;
24335;SDS011;33098;52.400;16.880;2023-01-31T00:09:36;10.50;;;2.20;;
24335;SDS011;33098;52.400;16.880;2023-01-31T00:12:09;10.40;;;2.70;;
24335;SDS011;33098;52.400;16.880;2023-01-31T00:14:35;5.80;;;1.80;;
24335;SDS011;33098;52.400;16.880;2023-01-31T00:17:02;11.50;;;2.60;;
24335;SDS011;33098;52.400;16.880;2023-01-31T00:19:32;7.50;;;2.20;;
24335;SDS011;33098;52.400;16.880;2023-01-31T00:22:01;9.60;;;2.20;;
24335;SDS011;33098;52.400;16.880;2023-01-31T00:24:28;9.70;;;2.40;;
24335;SDS011;33098;52.400;16.880;2023-01-31T00:26:58;6.60;;;2.00;;
24335;SDS011;33098;52.400;16.880;2023-01-31T00:29:25;6.60;;;1.90;;
24335;SDS011;33098;52.400;16.880;2023-01-31T00:31:54;8.90;;;2.20;;
24335;SDS011;33098;52.400;16.880;2023-01-31T00:34:22;7.60;;;2.00;;
24335;SDS011;33098;52.400;16.880;2023-01-31T00:36:48;11.40;;;2.30;;
24335;SDS011;33098;52.400;16.880;2023-01-31T00:39:17;5.00;;;1.70;;
24335;SDS011;33098;52.400;16.880;2023-01-31T00:41:44;8.60;;;2.10;;
24335;SDS011;33098;52.400;16.880;2023-01-31T00:44:14;8.40;;;2.00;;
24335;SDS011;33098;52.400;16.880;2023-01-31T00:46:41;10.40;;;1.90;;
24335;SDS011;33098;52.400;16.880;2023-01-31T00:49:10;5.70;;;1.80;;
24335;SDS011;33098;52.400;16.880;2023-01-31T00:51:37;6.50;;;1.90;;
24335;SDS011;33098;52.400;16.880;2023-01-31T00:54:04;6.40;;;1.90;;
24335;SDS011;33098;52.400;16.880;2023-01-31T00:56:31;5.80;;;2.10;;
24335;SDS011;33098;52.400;16.880;2023-01-31T00:58:58;6.20;;;1.80;;
24335;SDS011;33098;52.400;16.880;2023-01-31T01:01:27;7.70;;;2.00;;
24335;SDS011;33098;52.400;16.880;2023-01-31T01:03:55;6.90;;;2.20;;
24335;SDS011;33098;52.400;16.880;2023-01-31T01:06:23;6.00;;;1.90;;
24335;SDS011;33098;52.400;16.880;2023-01-31T01:08:54;8.30;;;1.90;;
24335;SDS011;33098;52.400;16.880;2023-01-31T01:11:28;5.30;;;1.60;;
24335;SDS011;33098;52.400;16.880;2023-01-31T01:13:57;7.40;;;1.80;;
24335;SDS011;33098;52.400;16.880;2023-01-31T01:16:33;5.10;;;1.40;;
24335;SDS011;33098;52.400;16.880;2023-01-31T01:19:06;7.60;;;2.20;;
24335;SDS011;33098;52.400;16.880;2023-01-31T01:21:37;4.90;;;1.80;;
24335;SDS011;33098;52.400;16.880;2023-01-31T01:24:07;7.20;;;1.90;;
24335;SDS011;33098;52.400;16.880;2023-01-31T01:26:39;12.30;;;1.90;;
24335;SDS011;33098;52.400;16.880;2023-01-31T01:29:06;7.90;;;2.40;;
24335;SDS011;33098;52.400;16.880;2023-01-31T01:31:36;8.70;;;2.10;;
24335;SDS011;33098;52.400;16.880;2023-01-31T01:34:07;7.20;;;2.00;;
24335;SDS011;33098;52.400;16.880;2023-01-31T01:36:40;8.70;;;2.10;;
24335;SDS011;33098;52.400;16.880;2023-01-31T01:39:09;6.70;;;1.70;;
24335;SDS011;33098;52.400;16.880;2023-01-31T01:41:37;6.30;;;1.70;;
24335;SDS011;33098;52.400;16.880;2023-01-31T01:47:29;7.70;;;1.90;;
24335;SDS011;33098;52.400;16.880;2023-01-31T01:50:06;7.90;;;1.80;;
24335;SDS011;33098;52.400;16.880;2023-01-31T01:52:53;5.70;;;1.70;;
24335;SDS011;33098;52.400;16.880;2023-01-31T01:55:27;11.10;;;2.30;;
24335;SDS011;33098;52.400;16.880;2023-01-31T01:58:00;10.20;;;1.90;;
24335;SDS011;33098;52.400;16.880;2023-01-31T02:00:41;6.10;;;1.40;;
24335;SDS011;33098;52.400;16.880;2023-01-31T02:03:11;6.50;;;1.80;;
24335;SDS011;33098;52.400;16.880;2023-01-31T02:05:40;7.70;;;1.60;;
24335;SDS011;33098;52.400;16.880;2023-01-31T02:08:11;5.60;;;1.30;;
24335;SDS011;33098;52.400;16.880;2023-01-31T02:13:14;6.90;;;1.30;;
24335;SDS011;33098;52.400;16.880;2023-01-31T02:15:45;6.40;;;1.90;;
24335;SDS011;33098;52.400;16.880;2023-01-31T02:18:12;4.90;;;1.60;;
24335;SDS011;33098;52.400;16.880;2023-01-31T02:27:13;7.00;;;1.80;;
24335;SDS011;33098;52.400;16.880;2023-01-31T02:38:36;9.40;;;2.20;;
24335;SDS011;33098;52.400;16.880;2023-01-31T02:41:19;4.90;;;1.80;;
24335;SDS011;33098;52.400;16.880;2023-01-31T02:44:00;6.40;;;1.70;;
24335;SDS011;33098;52.400;16.880;2023-01-31T02:49:48;8.70;;;2.40;;
24335;SDS011;33098;52.400;16.880;2023-01-31T02:52:41;6.40;;;1.80;;
24335;SDS011;33098;52.400;16.880;2023-01-31T02:57:59;7.50;;;1.80;;
24335;SDS011;33098;52.400;16.880;2023-01-31T03:00:30;6.40;;;1.80;;
24335;SDS011;33098;52.400;16.880;2023-01-31T03:02:59;6.50;;;1.80;;
24335;SDS011;33098;52.400;16.880;2023-01-31T03:05:28;5.20;;;1.70;;
24335;SDS011;33098;52.400;16.880;2023-01-31T03:07:56;6.50;;;1.60;;
24335;SDS011;33098;52.400;16.880;2023-01-31T03:10:51;6.70;;;1.80;;
24335;SDS011;33098;52.400;16.880;2023-01-31T03:16:27;8.90;;;1.80;;
24335;SDS011;33098;52.400;16.880;2023-01-31T03:19:21;6.80;;;1.50;;
24335;SDS011;33098;52.400;16.880;2023-01-31T03:22:00;8.50;;;1.70;;
24335;SDS011;33098;52.400;16.880;2023-01-31T03:24:31;7.60;;;1.60;;
24335;SDS011;33098;52.400;16.880;2023-01-31T03:26:59;5.90;;;1.80;;
24335;SDS011;33098;52.400;16.880;2023-01-31T03:29:28;8.90;;;2.00;;
24335;SDS011;33098;52.400;16.880;2023-01-31T03:32:17;7.30;;;1.90;;
24335;SDS011;33098;52.400;16.880;2023-01-31T03:34:50;5.70;;;1.70;;
24335;SDS011;33098;52.400;16.880;2023-01-31T03:37:39;4.90;;;1.60;;
24335;SDS011;33098;52.400;16.880;2023-01-31T03:40:23;4.60;;;1.70;;
24335;SDS011;33098;52.400;16.880;2023-01-31T03:43:16;7.90;;;1.90;;
24335;SDS011;33098;52.400;16.880;2023-01-31T03:45:58;5.70;;;1.80;;
24335;SDS011;33098;52.400;16.880;2023-01-31T03:48:34;9.90;;;1.70;;
24335;SDS011;33098;52.400;16.880;2023-01-31T03:51:05;4.40;;;1.20;;
24335;SDS011;33098;52.400;16.880;2023-01-31T03:56:12;7.20;;;1.80;;
24335;SDS011;33098;52.400;16.880;2023-01-31T03:58:58;5.90;;;1.60;;
24335;SDS011;33098;52.400;16.880;2023-01-31T04:01:30;8.50;;;1.80;;
24335;SDS011;33098;52.400;16.880;2023-01-31T04:06:45;8.20;;;1.80;;
24335;SDS011;33098;52.400;16.880;2023-01-31T04:09:12;9.30;;;1.80;;
24335;SDS011;33098;52.400;16.880;2023-01-31T04:11:39;7.10;;;1.70;;
24335;SDS011;33098;52.400;16.880;2023-01-31T04:14:07;7.60;;;1.60;;
24335;SDS011;33098;52.400;16.880;2023-01-31T04:16:37;7.70;;;2.00;;
24335;SDS011;33098;52.400;16.880;2023-01-31T04:19:04;6.80;;;1.50;;
24335;SDS011;33098;52.400;16.880;2023-01-31T04:21:32;7.70;;;1.70;;
24335;SDS011;33098;52.400;16.880;2023-01-31T04:23:59;5.30;;;1.30;;
24335;SDS011;33098;52.400;16.880;2023-01-31T04:26:29;3.70;;;1.60;;
24335;SDS011;33098;52.400;16.880;2023-01-31T04:28:56;8.00;;;1.90;;
24335;SDS011;33098;52.400;16.880;2023-01-31T04:31:22;6.10;;;1.40;;
24335;SDS011;33098;52.400;16.880;2023-01-31T04:33:49;9.50;;;1.60;;
24335;SDS011;33098;52.400;16.880;2023-01-31T04:36:16;7.50;;;1.50;;
24335;SDS011;33098;52.400;16.880;2023-01-31T04:38:46;6.10;;;1.60;;
24335;SDS011;33098;52.400;16.880;2023-01-31T04:41:12;5.00;;;1.40;;
24335;SDS011;33098;52.400;16.880;2023-01-31T04:43:39;5.30;;;1.40;;
24335;SDS011;33098;52.400;16.880;2023-01-31T04:46:09;4.40;;;1.60;;
24335;SDS011;33098;52.400;16.880;2023-01-31T04:48:36;7.80;;;1.70;;
24335;SDS011;33098;52.400;16.880;2023-01-31T04:51:04;7.30;;;1.70;;
24335;SDS011;33098;52.400;16.880;2023-01-31T04:53:31;8.50;;;1.80;;
24335;SDS011;33098;52.400;16.880;2023-01-31T04:55:57;6.60;;;1.50;;
24335;SDS011;33098;52.400;16.880;2023-01-31T04:58:24;6.20;;;1.70;;
24335;SDS011;33098;52.400;16.880;2023-01-31T05:00:54;7.20;;;1.60;;
24335;SDS011;33098;52.400;16.880;2023-01-31T05:03:21;6.10;;;2.00;;
24335;SDS011;33098;52.400;16.880;2023-01-31T05:05:50;7.10;;;1.90;;
24335;SDS011;33098;52.400;16.880;2023-01-31T05:08:19;7.50;;;2.00;;
24335;SDS011;33098;52.400;16.880;2023-01-31T05:10:46;9.50;;;2.00;;
24335;SDS011;33098;52.400;16.880;2023-01-31T05:13:13;8.60;;;2.10;;
24335;SDS011;33098;52.400;16.880;2023-01-31T05:15:40;6.00;;;1.90;;
24335;SDS011;33098;52.400;16.880;2023-01-31T05:18:10;6.40;;;2.00;;
24335;SDS011;33098;52.400;16.880;2023-01-31T05:20:38;6.40;;;1.90;;
24335;SDS011;33098;52.400;16.880;2023-01-31T05:23:06;6.50;;;2.20;;
24335;SDS011;33098;52.400;16.880;2023-01-31T05:25:33;10.50;;;2.60;;
24335;SDS011;33098;52.400;16.880;2023-01-31T05:28:03;10.20;;;2.60;;
24335;SDS011;33098;52.400;16.880;2023-01-31T05:30:30;7.10;;;2.70;;
24335;SDS011;33098;52.400;16.880;2023-01-31T05:32:57;8.20;;;2.50;;
24335;SDS011;33098;52.400;16.880;2023-01-31T05:35:24;6.30;;;2.20;;
24335;SDS011;33098;52.400;16.880;2023-01-31T05:37:54;9.40;;;1.90;;
24335;SDS011;33098;52.400;16.880;2023-01-31T05:40:24;7.30;;;1.60;;
24335;SDS011;33098;52.400;16.880;2023-01-31T05:42:57;6.20;;;1.80;;
24335;SDS011;33098;52.400;16.880;2023-01-31T05:45:27;7.70;;;1.90;;
24335;SDS011;33098;52.400;16.880;2023-01-31T05:47:55;9.10;;;2.20;;
24335;SDS011;33098;52.400;16.880;2023-01-31T05:50:22;7.80;;;2.60;;
24335;SDS011;33098;52.400;16.880;2023-01-31T05:52:53;7.20;;;1.80;;
24335;SDS011;33098;52.400;16.880;2023-01-31T05:55:21;6.60;;;2.00;;
24335;SDS011;33098;52.400;16.880;2023-01-31T05:57:48;6.50;;;2.00;;
24335;SDS011;33098;52.400;16.880;2023-01-31T06:00:15;4.20;;;1.60;;
24335;SDS011;33098;52.400;16.880;2023-01-31T06:02:42;5.30;;;1.60;;
24335;SDS011;33098;52.400;16.880;2023-01-31T06:05:09;5.70;;;1.70;;
24335;SDS011;33098;52.400;16.880;2023-01-31T06:07:37;6.20;;;1.50;;
24335;SDS011;33098;52.400;16.880;2023-01-31T06:10:05;9.70;;;1.80;;
24335;SDS011;33098;52.400;16.880;2023-01-31T06:12:33;6.70;;;1.80;;
24335;SDS011;33098;52.400;16.880;2023-01-31T06:15:01;8.60;;;2.30;;
24335;SDS011;33098;52.400;16.880;2023-01-31T06:17:28;6.70;;;2.40;;
24335;SDS011;33098;52.400;16.880;2023-01-31T06:19:59;6.40;;;2.30;;
24335;SDS011;33098;52.400;16.880;2023-01-31T06:22:25;8.20;;;2.00;;
24335;SDS011;33098;52.400;16.880;2023-01-31T06:24:52;8.80;;;1.90;;
24335;SDS011;33098;52.400;16.880;2023-01-31T06:27:19;7.90;;;2.20;;
24335;SDS011;33098;52.400;16.880;2023-01-31T06:29:46;6.80;;;1.70;;
24335;SDS011;33098;52.400;16.880;2023-01-31T06:32:13;8.00;;;2.30;;
24335;SDS011;33098;52.400;16.880;2023-01-31T06:34:40;8.70;;;2.20;;
24335;SDS011;33098;52.400;16.880;2023-01-31T06:37:12;8.20;;;2.30;;
24335;SDS011;33098;52.400;16.880;2023-01-31T06:39:39;7.20;;;2.20;;
24335;SDS011;33098;52.400;16.880;2023-01-31T06:42:05;10.70;;;2.40;;
24335;SDS011;33098;52.400;16.880;2023-01-31T06:44:35;10.40;;;2.50;;
24335;SDS011;33098;52.400;16.880;2023-01-31T06:47:04;10.00;;;2.50;;
24335;SDS011;33098;52.400;16.880;2023-01-31T06:49:33;10.30;;;2.90;;
24335;SDS011;33098;52.400;16.880;2023-01-31T06:52:02;8.10;;;2.30;;
24335;SDS011;33098;52.400;16.880;2023-01-31T06:54:33;6.30;;;2.20;;
24335;SDS011;33098;52.400;16.880;2023-01-31T06:57:00;10.20;;;2.60;;
24335;SDS011;33098;52.400;16.880;2023-01-31T06:59:28;8.40;;;2.30;;
24335;SDS011;33098;52.400;16.880;2023-01-31T07:01:54;13.90;;;2.60;;
24335;SDS011;33098;52.400;16.880;2023-01-31T07:04:21;9.00;;;2.40;;
24335;SDS011;33098;52.400;16.880;2023-01-31T07:06:48;8.30;;;2.40;;
24335;SDS011;33098;52.400;16.880;2023-01-31T07:09:15;9.80;;;2.30;;
24335;SDS011;33098;52.400;16.880;2023-01-31T07:11:42;12.60;;;2.80;;
24335;SDS011;33098;52.400;16.880;2023-01-31T07:14:09;8.30;;;2.60;;
24335;SDS011;33098;52.400;16.880;2023-01-31T07:16:36;7.40;;;2.40;;
24335;SDS011;33098;52.400;16.880;2023-01-31T07:19:06;9.10;;;2.50;;
24335;SDS011;33098;52.400;16.880;2023-01-31T07:21:37;11.60;;;2.70;;
24335;SDS011;33098;52.400;16.880;2023-01-31T07:24:04;9.40;;;2.40;;
24335;SDS011;33098;52.400;16.880;2023-01-31T07:26:31;7.20;;;2.10;;
24335;SDS011;33098;52.400;16.880;2023-01-31T07:28:57;9.00;;;2.70;;
24335;SDS011;33098;52.400;16.880;2023-01-31T07:31:26;11.40;;;2.40;;
24335;SDS011;33098;52.400;16.880;2023-01-31T07:33:53;11.40;;;2.50;;
24335;SDS011;33098;52.400;16.880;2023-01-31T07:36:20;10.30;;;2.40;;
24335;SDS011;33098;52.400;16.880;2023-01-31T07:38:52;14.00;;;2.80;;
24335;SDS011;33098;52.400;16.880;2023-01-31T07:41:21;6.90;;;2.00;;
24335;SDS011;33098;52.400;16.880;2023-01-31T07:43:49;11.00;;;2.70;;
24335;SDS011;33098;52.400;16.880;2023-01-31T07:46:16;10.10;;;2.10;;
24335;SDS011;33098;52.400;16.880;2023-01-31T07:51:13;8.10;;;2.10;;
24335;SDS011;33098;52.400;16.880;2023-01-31T07:53:40;9.90;;;2.60;;
24335;SDS011;33098;52.400;16.880;2023-01-31T07:56:12;6.60;;;2.00;;
24335;SDS011;33098;52.400;16.880;2023-01-31T07:58:45;6.10;;;2.00;;
24335;SDS011;33098;52.400;16.880;2023-01-31T08:01:16;8.60;;;2.30;;
24335;SDS011;33098;52.400;16.880;2023-01-31T08:04:04;7.40;;;2.20;;
24335;SDS011;33098;52.400;16.880;2023-01-31T08:06:43;9.60;;;2.50;;
24335;SDS011;33098;52.400;16.880;2023-01-31T08:09:12;7.80;;;3.00;;
24335;SDS011;33098;52.400;16.880;2023-01-31T08:11:39;7.60;;;2.30;;
24335;SDS011;33098;52.400;16.880;2023-01-31T08:14:06;9.50;;;2.60;;
24335;SDS011;33098;52.400;16.880;2023-01-31T08:16:37;10.40;;;2.80;;
24335;SDS011;33098;52.400;16.880;2023-01-31T08:19:05;8.50;;;2.50;;
24335;SDS011;33098;52.400;16.880;2023-01-31T08:21:39;8.40;;;2.50;;
24335;SDS011;33098;52.400;16.880;2023-01-31T08:24:07;6.80;;;2.20;;
24335;SDS011;33098;52.400;16.880;2023-01-31T08:26:34;9.90;;;2.60;;
24335;SDS011;33098;52.400;16.880;2023-01-31T08:29:05;7.20;;;3.00;;
24335;SDS011;33098;52.400;16.880;2023-01-31T08:31:32;7.80;;;2.40;;
24335;SDS011;33098;52.400;16.880;2023-01-31T08:33:59;11.80;;;3.00;;
24335;SDS011;33098;52.400;16.880;2023-01-31T08:36:27;9.90;;;2.70;;
24335;SDS011;33098;52.400;16.880;2023-01-31T08:38:57;10.10;;;2.20;;
24335;SDS011;33098;52.400;16.880;2023-01-31T08:41:24;7.20;;;2.40;;
24335;SDS011;33098;52.400;16.880;2023-01-31T08:44:00;6.40;;;2.10;;
24335;SDS011;33098;52.400;16.880;2023-01-31T08:46:29;6.70;;;2.40;;
24335;SDS011;33098;52.400;16.880;2023-01-31T08:49:02;6.20;;;2.60;;
24335;SDS011;33098;52.400;16.880;2023-01-31T08:51:31;9.40;;;2.20;;
24335;SDS011;33098;52.400;16.880;2023-01-31T08:53:57;7.70;;;2.30;;
24335;SDS011;33098;52.400;16.880;2023-01-31T08:56:24;8.70;;;2.30;;
24335;SDS011;33098;52.400;16.880;2023-01-31T08:58:53;7.90;;;2.10;;
24335;SDS011;33098;52.400;16.880;2023-01-31T09:01:20;7.10;;;2.20;;
24335;SDS011;33098;52.400;16.880;2023-01-31T09:03:48;3.70;;;1.90;;
24335;SDS011;33098;52.400;16.880;2023-01-31T09:06:20;8.90;;;2.30;;
24335;SDS011;33098;52.400;16.880;2023-01-31T09:08:51;10.10;;;2.80;;
24335;SDS011;33098;52.400;16.880;2023-01-31T09:11:18;7.60;;;2.70;;
24335;SDS011;33098;52.400;16.880;2023-01-31T09:13:48;7.10;;;2.50;;
24335;SDS011;33098;52.400;16.880;2023-01-31T09:16:17;9.10;;;2.30;;
24335;SDS011;33098;52.400;16.880;2023-01-31T09:18:52;9.60;;;2.60;;
24335;SDS011;33098;52.400;16.880;2023-01-31T09:21:23;8.80;;;2.70;;
24335;SDS011;33098;52.400;16.880;2023-01-31T09:23:55;7.60;;;2.60;;
24335;SDS011;33098;52.400;16.880;2023-01-31T09:26:27;8.70;;;2.40;;
24335;SDS011;33098;52.400;16.880;2023-01-31T09:28:54;8.70;;;2.20;;
24335;SDS011;33098;52.400;16.880;2023-01-31T09:31:30;4.90;;;1.70;;
24335;SDS011;33098;52.400;16.880;2023-01-31T09:33:58;5.10;;;1.50;;
24335;SDS011;33098;52.400;16.880;2023-01-31T09:36:27;8.30;;;2.50;;
24335;SDS011;33098;52.400;16.880;2023-01-31T09:38:54;13.00;;;2.60;;
24335;SDS011;33098;52.400;16.880;2023-01-31T09:41:27;5.80;;;2.10;;
24335;SDS011;33098;52.400;16.880;2023-01-31T09:44:11;12.70;;;2.20;;
24335;SDS011;33098;52.400;16.880;2023-01-31T09:46:43;8.50;;;2.10;;
24335;SDS011;33098;52.400;16.880;2023-01-31T09:49:22;9.30;;;2.70;;
24335;SDS011;33098;52.400;16.880;2023-01-31T09:51:55;8.50;;;2.50;;
24335;SDS011;33098;52.400;16.880;2023-01-31T09:54:30;7.90;;;2.30;;
24335;SDS011;33098;52.400;16.880;2023-01-31T09:57:16;10.80;;;2.20;;
24335;SDS011;33098;52.400;16.880;2023-01-31T09:59:58;8.20;;;2.30;;
24335;SDS011;33098;52.400;16.880;2023-01-31T10:02:56;10.40;;;2.10;;
24335;SDS011;33098;52.400;16.880;2023-01-31T10:05:38;8.90;;;2.60;;
24335;SDS011;33098;52.400;16.880;2023-01-31T10:19:33;7.70;;;1.80;;
24335;SDS011;33098;52.400;16.880;2023-01-31T10:22:07;5.60;;;1.80;;
24335;SDS011;33098;52.400;16.880;2023-01-31T10:24:54;6.00;;;2.00;;
24335;SDS011;33098;52.400;16.880;2023-01-31T10:27:50;7.40;;;1.70;;
24335;SDS011;33098;52.400;16.880;2023-01-31T10:30:24;8.60;;;2.30;;
24335;SDS011;33098;52.400;16.880;2023-01-31T10:32:59;14.50;;;2.80;;
24335;SDS011;33098;52.400;16.880;2023-01-31T10:35:35;10.10;;;2.20;;
24335;SDS011;33098;52.400;16.880;2023-01-31T10:38:13;10.80;;;2.40;;
24335;SDS011;33098;52.400;16.880;2023-01-31T10:40:49;9.00;;;2.40;;
24335;SDS011;33098;52.400;16.880;2023-01-31T10:43:28;8.60;;;2.00;;
24335;SDS011;33098;52.400;16.880;2023-01-31T10:46:07;7.50;;;2.20;;
24335;SDS011;33098;52.400;16.880;2023-01-31T10:48:39;7.70;;;2.10;;
24335;SDS011;33098;52.400;16.880;2023-01-31T10:51:21;6.50;;;2.20;;
24335;SDS011;33098;52.400;16.880;2023-01-31T10:54:34;4.10;;;1.40;;
24335;SDS011;33098;52.400;16.880;2023-01-31T10:57:41;8.30;;;2.50;;
24335;SDS011;33098;52.400;16.880;2023-01-31T11:00:16;9.30;;;2.30;;
24335;SDS011;33098;52.400;16.880;2023-01-31T11:02:48;10.00;;;1.90;;
24335;SDS011;33098;52.400;16.880;2023-01-31T11:05:20;8.20;;;2.50;;
24335;SDS011;33098;52.400;16.880;2023-01-31T11:10:23;8.00;;;2.30;;
24335;SDS011;33098;52.400;16.880;2023-01-31T11:13:02;6.30;;;2.30;;
24335;SDS011;33098;52.400;16.880;2023-01-31T11:15:41;7.10;;;2.20;;
24335;SDS011;33098;52.400;16.880;2023-01-31T11:18:31;6.80;;;2.40;;
24335;SDS011;33098;52.400;16.880;2023-01-31T11:21:02;9.90;;;2.50;;
24335;SDS011;33098;52.400;16.880;2023-01-31T11:23:31;10.30;;;2.30;;
24335;SDS011;33098;52.400;16.880;2023-01-31T11:26:01;5.70;;;1.90;;
24335;SDS011;33098;52.400;16.880;2023-01-31T11:28:33;10.60;;;2.60;;
24335;SDS011;33098;52.400;16.880;2023-01-31T11:31:03;10.10;;;2.50;;
24335;SDS011;33098;52.400;16.880;2023-01-31T11:33:42;8.20;;;2.50;;
24335;SDS011;33098;52.400;16.880;2023-01-31T11:36:16;6.60;;;2.40;;
24335;SDS011;33098;52.400;16.880;2023-01-31T11:38:52;8.90;;;2.10;;
24335;SDS011;33098;52.400;16.880;2023-01-31T11:41:31;10.50;;;2.70;;
24335;SDS011;33098;52.400;16.880;2023-01-31T11:46:43;6.00;;;2.30;;
24335;SDS011;33098;52.400;16.880;2023-01-31T11:49:29;9.80;;;2.70;;
24335;SDS011;33098;52.400;16.880;2023-01-31T11:52:16;11.40;;;3.00;;
24335;SDS011;33098;52.400;16.880;2023-01-31T11:54:53;4.70;;;1.70;;
24335;SDS011;33098;52.400;16.880;2023-01-31T11:57:29;7.30;;;1.60;;
24335;SDS011;33098;52.400;16.880;2023-01-31T12:00:00;10.40;;;2.40;;
24335;SDS011;33098;52.400;16.880;2023-01-31T12:02:37;9.80;;;2.00;;
24335;SDS011;33098;52.400;16.880;2023-01-31T12:05:16;5.40;;;1.50;;
24335;SDS011;33098;52.400;16.880;2023-01-31T12:07:46;7.40;;;2.20;;
24335;SDS011;33098;52.400;16.880;2023-01-31T12:13:23;10.10;;;2.40;;
24335;SDS011;33098;52.400;16.880;2023-01-31T12:15:58;7.50;;;2.40;;
24335;SDS011;33098;52.400;16.880;2023-01-31T12:52:01;8.10;;;2.40;;
24335;SDS011;33098;52.400;16.880;2023-01-31T12:58:07;8.20;;;2.40;;
24335;SDS011;33098;52.400;16.880;2023-01-31T13:03:29;8.40;;;2.30;;
24335;SDS011;33098;52.400;16.880;2023-01-31T13:06:29;9.80;;;2.90;;
24335;SDS011;33098;52.400;16.880;2023-01-31T13:09:21;9.20;;;3.10;;
24335;SDS011;33098;52.400;16.880;2023-01-31T13:11:51;7.80;;;2.80;;
24335;SDS011;33098;52.400;16.880;2023-01-31T13:14:25;6.80;;;3.00;;
24335;SDS011;33098;52.400;16.880;2023-01-31T13:16:58;11.10;;;3.50;;
24335;SDS011;33098;52.400;16.880;2023-01-31T13:19:33;10.90;;;3.80;;
24335;SDS011;33098;52.400;16.880;2023-01-31T13:22:11;10.60;;;4.50;;
24335;SDS011;33098;52.400;16.880;2023-01-31T13:24:46;9.00;;;4.20;;
24335;SDS011;33098;52.400;16.880;2023-01-31T13:27:22;11.10;;;4.60;;
24335;SDS011;33098;52.400;16.880;2023-01-31T13:29:58;7.10;;;3.70;;
24335;SDS011;33098;52.400;16.880;2023-01-31T13:32:36;6.80;;;3.00;;
24335;SDS011;33098;52.400;16.880;2023-01-31T13:35:23;8.60;;;3.60;;
24335;SDS011;33098;52.400;16.880;2023-01-31T13:37:59;9.80;;;3.60;;
24335;SDS011;33098;52.400;16.880;2023-01-31T13:40:52;10.90;;;3.60;;
24335;SDS011;33098;52.400;16.880;2023-01-31T13:43:21;6.50;;;3.20;;
24335;SDS011;33098;52.400;16.880;2023-01-31T13:45:50;4.30;;;2.30;;
24335;SDS011;33098;52.400;16.880;2023-01-31T13:48:32;6.20;;;2.60;;
24335;SDS011;33098;52.400;16.880;2023-01-31T13:51:12;3.90;;;2.20;;
24335;SDS011;33098;52.400;16.880;2023-01-31T13:53:46;5.50;;;2.50;;
24335;SDS011;33098;52.400;16.880;2023-01-31T13:56:19;9.30;;;2.80;;
24335;SDS011;33098;52.400;16.880;2023-01-31T13:58:50;5.60;;;2.90;;
24335;SDS011;33098;52.400;16.880;2023-01-31T14:01:24;5.00;;;2.60;;
24335;SDS011;33098;52.400;16.880;2023-01-31T14:09:30;5.70;;;3.00;;
24335;SDS011;33098;52.400;16.880;2023-01-31T14:11:58;10.20;;;4.70;;
24335;SDS011;33098;52.400;16.880;2023-01-31T14:17:04;9.90;;;4.50;;
24335;SDS011;33098;52.400;16.880;2023-01-31T14:25:38;10.90;;;4.60;;
24335;SDS011;33098;52.400;16.880;2023-01-31T14:28:08;11.20;;;5.30;;
24335;SDS011;33098;52.400;16.880;2023-01-31T14:30:40;10.90;;;4.40;;
24335;SDS011;33098;52.400;16.880;2023-01-31T14:47:18;8.90;;;3.70;;
24335;SDS011;33098;52.400;16.880;2023-01-31T14:49:59;8.00;;;4.10;;
24335;SDS011;33098;52.400;16.880;2023-01-31T14:58:28;9.20;;;3.80;;
24335;SDS011;33098;52.400;16.880;2023-01-31T15:00:58;11.60;;;4.60;;
24335;SDS011;33098;52.400;16.880;2023-01-31T15:03:29;10.20;;;4.40;;
24335;SDS011;33098;52.400;16.880;2023-01-31T15:08:36;9.30;;;4.30;;
24335;SDS011;33098;52.400;16.880;2023-01-31T15:26:59;10.00;;;4.70;;
24335;SDS011;33098;52.400;16.880;2023-01-31T15:32:25;9.60;;;4.50;;
24335;SDS011;33098;52.400;16.880;2023-01-31T15:35:00;9.60;;;4.80;;
24335;SDS011;33098;52.400;16.880;2023-01-31T15:37:33;6.20;;;4.10;;
24335;SDS011;33098;52.400;16.880;2023-01-31T15:40:03;8.10;;;4.40;;
24335;SDS011;33098;52.400;16.880;2023-01-31T15:42:39;6.90;;;4.10;;
24335;SDS011;33098;52.400;16.880;2023-01-31T15:45:22;8.90;;;4.30;;
24335;SDS011;33098;52.400;16.880;2023-01-31T15:50:27;7.80;;;4.00;;
24335;SDS011;33098;52.400;16.880;2023-01-31T15:52:57;8.30;;;4.40;;
24335;SDS011;33098;52.400;16.880;2023-01-31T15:55:28;8.80;;;4.70;;
24335;SDS011;33098;52.400;16.880;2023-01-31T15:57:56;7.70;;;4.00;;
24335;SDS011;33098;52.400;16.880;2023-01-31T16:00:30;11.30;;;5.50;;
24335;SDS011;33098;52.400;16.880;2023-01-31T16:02:59;10.10;;;5.20;;
24335;SDS011;33098;52.400;16.880;2023-01-31T16:05:49;11.70;;;5.00;;
24335;SDS011;33098;52.400;16.880;2023-01-31T16:08:30;11.40;;;5.20;;
24335;SDS011;33098;52.400;16.880;2023-01-31T16:13:27;12.40;;;5.90;;
24335;SDS011;33098;52.400;16.880;2023-01-31T16:15:55;13.80;;;6.20;;
24335;SDS011;33098;52.400;16.880;2023-01-31T16:18:23;13.40;;;6.40;;
24335;SDS011;33098;52.400;16.880;2023-01-31T16:20:53;14.40;;;6.60;;
24335;SDS011;33098;52.400;16.880;2023-01-31T16:26:00;12.90;;;6.00;;
24335;SDS011;33098;52.400;16.880;2023-01-31T16:28:46;10.30;;;5.90;;
24335;SDS011;33098;52.400;16.880;2023-01-31T16:31:28;10.10;;;5.10;;
24335;SDS011;33098;52.400;16.880;2023-01-31T16:34:00;12.70;;;6.30;;
24335;SDS011;33098;52.400;16.880;2023-01-31T16:36:31;14.40;;;6.40;;
24335;SDS011;33098;52.400;16.880;2023-01-31T16:39:25;13.80;;;6.20;;
24335;SDS011;33098;52.400;16.880;2023-01-31T16:42:05;15.60;;;7.30;;
24335;SDS011;33098;52.400;16.880;2023-01-31T16:44:49;12.60;;;6.30;;
24335;SDS011;33098;52.400;16.880;2023-01-31T16:47:30;17.90;;;7.40;;
24335;SDS011;33098;52.400;16.880;2023-01-31T16:52:46;12.50;;;6.40;;
24335;SDS011;33098;52.400;16.880;2023-01-31T16:55:21;12.00;;;6.70;;
24335;SDS011;33098;52.400;16.880;2023-01-31T16:57:55;14.80;;;6.90;;
24335;SDS011;33098;52.400;16.880;2023-01-31T17:02:49;8.30;;;5.30;;
24335;SDS011;33098;52.400;16.880;2023-01-31T17:05:22;11.30;;;6.00;;
24335;SDS011;33098;52.400;16.880;2023-01-31T17:08:05;13.90;;;6.90;;
24335;SDS011;33098;52.400;16.880;2023-01-31T17:10:44;11.50;;;5.70;;
24335;SDS011;33098;52.400;16.880;2023-01-31T17:13:22;12.90;;;6.10;;
24335;SDS011;33098;52.400;16.880;2023-01-31T17:15:50;13.60;;;6.90;;
24335;SDS011;33098;52.400;16.880;2023-01-31T17:18:21;13.40;;;6.60;;
24335;SDS011;33098;52.400;16.880;2023-01-31T17:20:47;12.90;;;6.90;;
24335;SDS011;33098;52.400;16.880;2023-01-31T17:23:16;13.90;;;6.90;;
24335;SDS011;33098;52.400;16.880;2023-01-31T17:25:44;13.80;;;6.80;;
24335;SDS011;33098;52.400;16.880;2023-01-31T17:28:11;10.30;;;6.30;;
24335;SDS011;33098;52.400;16.880;2023-01-31T17:30:40;10.10;;;6.20;;
24335;SDS011;33098;52.400;16.880;2023-01-31T17:33:11;10.70;;;6.00;;
24335;SDS011;33098;52.400;16.880;2023-01-31T17:35:40;11.10;;;6.20;;
24335;SDS011;33098;52.400;16.880;2023-01-31T17:38:12;9.90;;;6.30;;
24335;SDS011;33098;52.400;16.880;2023-01-31T17:40:39;14.10;;;5.70;;
24335;SDS011;33098;52.400;16.880;2023-01-31T17:43:17;8.90;;;5.70;;
24335;SDS011;33098;52.400;16.880;2023-01-31T17:45:47;9.60;;;5.60;;
24335;SDS011;33098;52.400;16.880;2023-01-31T17:48:14;7.80;;;5.20;;